createdAt,value
2023-04-05T00:01:22.980Z,28.30
2023-04-05T00:03:55.698Z,28.30
2023-04-05T00:06:31.626Z,28.40
2023-04-05T00:09:05.169Z,28.40
2023-04-05T00:11:36.926Z,28.50
2023-04-05T00:14:08.192Z,28.50
2023-04-05T00:16:39.528Z,28.60
2023-04-05T00:19:12.645Z,28.60
2023-04-05T00:21:44.033Z,28.70
2023-04-05T00:24:16.776Z,28.70
2023-04-05T00:26:48.098Z,28.70
2023-04-05T00:29:19.661Z,28.70
2023-04-05T00:31:50.864Z,28.70
2023-04-05T00:34:21.993Z,28.80
2023-04-05T00:36:53.243Z,28.80
2023-04-05T00:39:24.376Z,28.90
2023-04-05T00:41:55.599Z,28.90
2023-04-05T00:44:27.883Z,29.00
2023-04-05T00:46:59.886Z,29.00
2023-04-05T00:49:33.517Z,29.10
2023-04-05T00:52:05.422Z,29.10
2023-04-05T00:54:39.124Z,29.20
2023-04-05T00:57:10.156Z,29.30
2023-04-05T00:59:41.433Z,29.30
2023-04-05T01:02:18.059Z,29.40
2023-04-05T01:04:51.785Z,29.40
2023-04-05T01:07:40.657Z,29.60
2023-04-05T01:10:14.529Z,29.60
2023-04-05T01:12:46.145Z,29.70
2023-04-05T01:15:17.305Z,29.80
2023-04-05T01:17:49.738Z,29.90
2023-04-05T01:20:21.661Z,29.90
2023-04-05T01:23:09.978Z,30.00
2023-04-05T01:26:07.117Z,30.00
2023-04-05T01:28:58.035Z,30.10
2023-04-05T01:31:55.623Z,30.20
2023-04-05T01:34:57.722Z,30.20
2023-04-05T01:37:34.088Z,30.30
2023-04-05T01:40:05.973Z,30.30
2023-04-05T01:42:38.197Z,30.40
2023-04-05T01:45:10.081Z,30.50
2023-04-05T01:47:41.267Z,30.60
2023-04-05T01:50:13.261Z,30.70
2023-04-05T01:52:44.625Z,30.70
2023-04-05T01:55:16.240Z,30.80
2023-04-05T01:57:47.949Z,30.90
2023-04-05T02:00:19.485Z,31.00
2023-04-05T02:02:50.794Z,31.10
2023-04-05T02:05:24.927Z,31.20
2023-04-05T02:07:56.107Z,31.20
2023-04-05T02:10:27.919Z,31.40
2023-04-05T02:12:59.182Z,31.40
2023-04-05T02:15:30.451Z,31.40
2023-04-05T02:18:03.251Z,31.50
2023-04-05T02:20:34.731Z,31.60
2023-04-05T02:23:06.343Z,31.70
2023-04-05T02:25:37.685Z,31.80
2023-04-05T02:28:11.880Z,31.90
2023-04-05T02:30:43.657Z,32.00
2023-04-05T02:33:15.094Z,32.00
2023-04-05T02:35:46.428Z,32.10
2023-04-05T02:38:17.844Z,32.20
2023-04-05T02:40:55.199Z,32.30
2023-04-05T02:43:26.286Z,32.40
2023-04-05T02:45:57.790Z,32.60
2023-04-05T02:48:29.350Z,32.70
2023-04-05T02:51:00.498Z,32.80
2023-04-05T02:53:31.658Z,32.90
2023-04-05T02:56:02.804Z,33.10
2023-04-05T02:58:34.636Z,33.20
2023-04-05T03:01:07.324Z,33.30
2023-04-05T03:03:40.689Z,33.40
2023-04-05T03:06:11.884Z,33.50
2023-04-05T03:08:47.722Z,33.60
2023-04-05T03:11:18.826Z,33.70
2023-04-05T03:13:53.102Z,33.80
2023-04-05T03:16:24.312Z,33.90
2023-04-05T03:18:58.768Z,34.00
2023-04-05T03:21:32.346Z,34.10
2023-04-05T03:24:04.151Z,34.20
2023-04-05T03:26:36.067Z,34.20
2023-04-05T03:29:10.479Z,34.40
2023-04-05T03:31:41.462Z,34.40
2023-04-05T03:34:12.772Z,34.50
2023-04-05T03:36:44.166Z,34.70
2023-04-05T03:39:16.407Z,34.70
2023-04-05T03:41:47.938Z,34.80
2023-04-05T03:44:19.180Z,34.90
2023-04-05T03:46:50.740Z,35.00
2023-04-05T03:49:21.943Z,35.10
2023-04-05T03:51:58.877Z,35.10
2023-04-05T03:54:30.328Z,35.30
2023-04-05T03:57:02.335Z,35.30
2023-04-05T03:59:36.249Z,35.40
2023-04-05T04:02:07.406Z,35.40
2023-04-05T04:04:40.440Z,35.50
2023-04-05T04:07:12.848Z,35.50
2023-04-05T04:09:44.019Z,35.60
2023-04-05T04:12:15.233Z,35.70
2023-04-05T04:14:46.557Z,35.80
2023-04-05T04:17:24.347Z,35.80
2023-04-05T04:19:57.626Z,35.90
2023-04-05T04:22:31.035Z,36.00
2023-04-05T04:25:06.191Z,36.00
2023-04-05T04:27:37.919Z,36.10
2023-04-05T04:30:14.279Z,36.20
2023-04-05T04:32:56.208Z,36.40
2023-04-05T04:35:30.081Z,36.40
2023-04-05T04:38:06.108Z,36.50
2023-04-05T04:40:44.050Z,36.70
2023-04-05T04:43:18.048Z,36.70
2023-04-05T04:45:54.146Z,36.80
2023-04-05T04:48:25.318Z,36.80
2023-04-05T04:51:00.954Z,36.80
2023-04-05T04:53:32.871Z,36.80
2023-04-05T04:56:04.021Z,36.80
2023-04-05T04:58:35.329Z,36.90
2023-04-05T05:01:11.013Z,37.00
2023-04-05T05:03:42.239Z,37.10
2023-04-05T05:06:13.509Z,37.20
2023-04-05T05:08:45.804Z,37.30
2023-04-05T05:11:17.224Z,37.30
2023-04-05T05:13:51.881Z,37.40
2023-04-05T05:16:22.406Z,37.50
2023-04-05T05:18:57.496Z,37.60
2023-04-05T05:21:29.095Z,37.60
2023-04-05T05:24:01.096Z,37.60
2023-04-05T05:26:32.380Z,37.70
2023-04-05T05:29:06.287Z,37.70
2023-04-05T05:31:37.652Z,37.70
2023-04-05T05:34:08.880Z,37.70
2023-04-05T05:36:39.993Z,37.70
2023-04-05T05:39:11.392Z,37.70
2023-04-05T05:41:43.773Z,37.70
2023-04-05T05:44:15.170Z,37.90
2023-04-05T05:46:47.488Z,37.90
2023-04-05T05:49:19.148Z,37.90
2023-04-05T05:51:50.343Z,37.90
2023-04-05T05:54:21.574Z,37.80
2023-04-05T05:56:52.690Z,37.90
2023-04-05T05:59:25.062Z,37.90
2023-04-05T06:01:56.802Z,37.90
2023-04-05T06:04:29.131Z,38.00
2023-04-05T06:07:01.098Z,38.00
2023-04-05T06:09:33.898Z,38.00
2023-04-05T06:12:05.720Z,38.10
2023-04-05T06:14:38.768Z,38.10
2023-04-05T06:17:09.342Z,38.10
2023-04-05T06:19:40.725Z,38.10
2023-04-05T06:22:12.305Z,38.10
2023-04-05T06:24:43.531Z,38.20
2023-04-05T06:27:15.762Z,38.30
2023-04-05T06:29:46.909Z,38.40
2023-04-05T06:32:18.372Z,38.50
2023-04-05T06:34:50.160Z,38.50
2023-04-05T06:37:24.374Z,38.50
2023-04-05T06:39:53.811Z,38.60
2023-04-05T06:42:26.555Z,38.50
2023-04-05T06:44:57.622Z,38.50
2023-04-05T06:47:28.843Z,38.50
2023-04-05T06:50:00.161Z,38.60
2023-04-05T06:52:31.765Z,38.60
2023-04-05T06:55:04.634Z,38.50
2023-04-05T06:57:35.853Z,38.40
2023-04-05T07:00:11.955Z,38.40
2023-04-05T07:02:42.834Z,38.40
2023-04-05T07:05:14.029Z,38.40
2023-04-05T07:07:46.897Z,38.40
2023-04-05T07:10:19.990Z,38.40
2023-04-05T07:12:51.254Z,38.40
2023-04-05T07:15:22.610Z,38.40
2023-04-05T07:17:53.765Z,38.30
2023-04-05T07:20:25.306Z,38.20
2023-04-05T07:22:57.477Z,38.20
2023-04-05T07:25:29.331Z,38.20
2023-04-05T07:28:00.699Z,38.20
2023-04-05T07:30:33.518Z,38.20
2023-04-05T07:33:05.401Z,38.20
2023-04-05T07:35:37.221Z,38.20
2023-04-05T07:38:08.783Z,38.20
2023-04-05T07:40:40.840Z,38.30
2023-04-05T07:43:15.123Z,38.20
2023-04-05T07:45:46.804Z,38.30
2023-04-05T07:48:18.841Z,38.20
2023-04-05T07:50:51.056Z,38.30
2023-04-05T07:53:22.531Z,38.20
2023-04-05T07:55:54.664Z,38.30
2023-04-05T07:58:34.606Z,38.30
2023-04-05T08:01:07.904Z,38.30
2023-04-05T08:03:40.723Z,38.20
2023-04-05T08:06:16.246Z,38.20
2023-04-05T08:08:47.770Z,38.30
2023-04-05T08:11:20.368Z,38.30
2023-04-05T08:13:52.142Z,38.20
2023-04-05T08:16:23.416Z,38.20
2023-04-05T08:18:54.594Z,38.30
2023-04-05T08:21:27.755Z,38.20
2023-04-05T08:23:59.377Z,38.30
2023-04-05T08:26:31.116Z,38.30
2023-04-05T08:31:51.650Z,38.20
2023-04-05T08:34:22.986Z,38.20
2023-04-05T08:36:54.187Z,38.20
2023-04-05T08:39:32.050Z,38.20
2023-04-05T08:42:23.797Z,38.20
2023-04-05T08:44:55.911Z,38.10
2023-04-05T08:47:27.708Z,38.10
2023-04-05T08:49:59.142Z,38.00
2023-04-05T08:52:32.362Z,38.00
2023-04-05T08:55:03.592Z,38.00
2023-04-05T08:57:36.968Z,38.00
2023-04-05T09:00:10.207Z,38.00
2023-04-05T09:02:42.447Z,38.00
2023-04-05T09:05:15.125Z,37.90
2023-04-05T09:07:48.710Z,37.90
2023-04-05T09:10:21.727Z,37.90
2023-04-05T09:12:54.363Z,37.90
2023-04-05T09:15:28.181Z,37.90
2023-04-05T09:18:00.232Z,37.80
2023-04-05T09:20:31.894Z,37.80
2023-04-05T09:23:03.767Z,37.80
2023-04-05T09:25:43.580Z,37.70
2023-04-05T09:28:15.342Z,37.80
2023-04-05T09:30:50.662Z,37.70
2023-04-05T09:33:23.736Z,37.60
2023-04-05T09:35:56.307Z,37.70
2023-04-05T09:38:48.600Z,37.60
2023-04-05T09:41:19.734Z,37.60
2023-04-05T09:43:50.902Z,37.60
2023-04-05T09:46:42.958Z,37.60
2023-04-05T09:49:15.740Z,37.60
2023-04-05T09:51:48.281Z,37.60
2023-04-05T09:54:19.941Z,37.70
2023-04-05T09:56:56.248Z,37.60
2023-04-05T09:59:27.758Z,37.60
2023-04-05T10:01:59.247Z,37.50
2023-04-05T10:04:31.795Z,37.50
2023-04-05T10:07:03.150Z,37.50
2023-04-05T10:09:35.653Z,37.50
2023-04-05T10:12:08.558Z,37.40
2023-04-05T10:14:40.091Z,37.50
2023-04-05T10:17:13.756Z,37.40
2023-04-05T10:20:05.451Z,37.40
2023-04-05T10:22:56.595Z,37.40
2023-04-05T10:25:56.445Z,37.40
2023-04-05T10:28:36.739Z,37.30
2023-04-05T10:31:38.188Z,37.30
2023-04-05T10:34:10.053Z,37.30
2023-04-05T10:37:03.521Z,37.20
2023-04-05T10:39:46.208Z,37.20
2023-04-05T10:42:25.565Z,37.10
2023-04-05T10:45:00.478Z,37.10
2023-04-05T10:47:33.555Z,37.10
2023-04-05T10:50:07.029Z,37.10
2023-04-05T10:52:39.979Z,37.00
2023-04-05T10:55:12.867Z,37.00
2023-04-05T10:57:46.187Z,36.90
2023-04-05T11:00:18.980Z,36.90
2023-04-05T11:02:54.654Z,36.80
2023-04-05T11:05:38.701Z,36.80
2023-04-05T11:08:13.202Z,36.80
2023-04-05T11:10:46.886Z,36.80
2023-04-05T11:13:18.439Z,36.80
2023-04-05T11:15:51.539Z,36.70
2023-04-05T11:18:29.111Z,36.60
2023-04-05T11:21:11.920Z,36.60
2023-04-05T11:24:09.926Z,36.50
2023-04-05T11:26:55.486Z,36.50
2023-04-05T11:29:53.783Z,36.40
2023-04-05T11:32:26.102Z,36.40
2023-04-05T11:35:09.382Z,36.30
2023-04-05T11:38:06.773Z,36.30
2023-04-05T11:40:55.803Z,36.30
2023-04-05T11:43:31.766Z,36.20
2023-04-05T11:46:04.990Z,36.20
2023-04-05T11:48:39.387Z,36.10
2023-04-05T11:51:12.472Z,36.10
2023-04-05T11:53:44.949Z,36.00
2023-04-05T11:56:17.254Z,36.00
2023-04-05T11:58:49.175Z,36.00
2023-04-05T12:01:22.305Z,36.00
2023-04-05T12:03:58.848Z,35.90
2023-04-05T12:06:31.455Z,35.90
2023-04-05T12:09:03.581Z,35.80
2023-04-05T12:11:35.869Z,35.90
2023-04-05T12:14:08.119Z,35.70
2023-04-05T12:16:40.910Z,35.70
2023-04-05T12:19:12.483Z,35.70
2023-04-05T12:21:43.869Z,35.60
2023-04-05T12:24:15.429Z,35.60
2023-04-05T12:26:46.912Z,35.60
2023-04-05T12:29:19.172Z,35.60
2023-04-05T12:31:52.087Z,35.50
2023-04-05T12:34:30.052Z,35.50
2023-04-05T12:37:04.151Z,35.50
2023-04-05T12:39:35.943Z,35.50
2023-04-05T12:42:07.544Z,35.40
2023-04-05T12:44:38.668Z,35.40
2023-04-05T12:47:11.096Z,35.40
2023-04-05T12:49:48.714Z,35.40
2023-04-05T12:52:24.374Z,35.40
2023-04-05T12:54:58.784Z,35.30
2023-04-05T12:57:37.291Z,35.30
2023-04-05T13:00:10.116Z,35.30
2023-04-05T13:02:42.586Z,35.30
2023-04-05T13:05:14.002Z,35.30
2023-04-05T13:07:45.414Z,35.20
2023-04-05T13:10:19.294Z,35.20
2023-04-05T13:12:52.473Z,35.20
2023-04-05T13:15:24.197Z,35.20
2023-04-05T13:17:57.348Z,35.10
2023-04-05T13:20:29.296Z,35.10
2023-04-05T13:23:03.093Z,35.10
2023-04-05T13:25:40.907Z,35.00
2023-04-05T13:28:12.670Z,35.00
2023-04-05T13:30:45.313Z,35.00
2023-04-05T13:33:21.155Z,35.00
2023-04-05T13:35:56.317Z,35.00
2023-04-05T13:38:35.260Z,34.90
2023-04-05T13:41:08.128Z,34.90
2023-04-05T13:43:40.803Z,34.80
2023-04-05T13:46:12.300Z,34.80
2023-04-05T13:48:46.823Z,34.80
2023-04-05T13:51:18.189Z,34.80
2023-04-05T13:53:49.739Z,34.70
2023-04-05T13:56:21.395Z,34.70
2023-04-05T13:58:55.092Z,34.60
2023-04-05T14:01:25.414Z,34.70
2023-04-05T14:04:11.169Z,34.60
2023-04-05T14:06:43.290Z,34.60
2023-04-05T14:09:15.176Z,34.60
2023-04-05T14:11:46.853Z,34.50
2023-04-05T14:14:18.182Z,34.40
2023-04-05T14:16:49.395Z,34.40
2023-04-05T14:19:22.365Z,34.30
2023-04-05T14:21:54.994Z,34.30
2023-04-05T14:35:26.314Z,34.10
2023-04-05T14:38:05.989Z,34.10
2023-04-05T14:40:37.374Z,34.10
2023-04-05T15:09:51.659Z,33.90
2023-04-05T15:12:03.780Z,33.90
2023-04-05T15:21:15.713Z,33.80
2023-04-05T15:24:06.102Z,33.70
2023-04-05T15:26:42.525Z,33.70
2023-04-05T15:29:26.812Z,33.60
2023-04-05T15:38:22.592Z,33.60
2023-04-05T15:40:59.747Z,33.50
2023-04-05T15:43:32.290Z,33.50
2023-04-05T15:46:05.358Z,33.50
2023-04-05T15:48:37.809Z,33.50
2023-04-05T15:51:11.411Z,33.40
2023-04-05T15:53:42.669Z,33.40
2023-04-05T15:56:14.302Z,33.30
2023-04-05T15:58:46.637Z,33.30
2023-04-05T16:01:18.240Z,33.30
2023-04-05T16:03:52.993Z,33.30
2023-04-05T16:06:27.200Z,33.30
2023-04-05T16:08:59.055Z,33.30
2023-04-05T16:11:30.661Z,33.30
2023-04-05T16:14:02.711Z,33.30
2023-04-05T16:16:45.556Z,33.30
2023-04-05T16:19:09.180Z,33.30
2023-04-05T16:21:44.968Z,33.30
2023-04-05T16:24:16.234Z,33.20
2023-04-05T16:26:47.488Z,33.10
2023-04-05T16:29:29.658Z,33.10
2023-04-05T16:31:59.024Z,33.10
2023-04-05T16:34:31.197Z,33.10
2023-04-05T16:37:02.370Z,33.10
2023-04-05T16:39:36.418Z,33.00
2023-04-05T16:42:07.548Z,33.10
2023-04-05T16:44:39.125Z,33.10
2023-04-05T16:47:10.476Z,33.00
2023-04-05T16:49:44.554Z,33.00
2023-04-05T16:52:17.778Z,33.00
2023-04-05T16:55:01.592Z,33.00
2023-04-05T16:57:34.476Z,33.00
2023-04-05T17:02:58.579Z,32.90
2023-04-05T17:05:33.594Z,32.90
2023-04-05T17:08:24.855Z,32.80
2023-04-05T17:14:29.768Z,32.80
2023-04-05T17:17:09.369Z,32.70
2023-04-05T17:19:40.514Z,32.70
2023-04-05T17:22:12.840Z,32.70
2023-04-05T17:24:44.055Z,32.60
2023-04-05T17:27:15.537Z,32.70
2023-04-05T17:29:46.747Z,32.60
2023-04-05T17:32:18.005Z,32.60
2023-04-05T17:34:49.698Z,32.60
2023-04-05T17:37:21.086Z,32.50
2023-04-05T17:40:09.446Z,32.50
2023-04-05T17:42:41.793Z,32.50
2023-04-05T17:45:14.333Z,32.50
2023-04-05T17:47:45.737Z,32.50
2023-04-05T17:50:17.301Z,32.40
2023-04-05T17:52:49.315Z,32.50
2023-04-05T17:55:20.716Z,32.40
2023-04-05T17:57:52.160Z,32.40
2023-04-05T18:00:23.955Z,32.40
2023-04-05T18:03:06.010Z,32.30
2023-04-05T18:05:33.222Z,32.30
2023-04-05T18:08:04.644Z,32.30
2023-04-05T18:10:38.954Z,32.30
2023-04-05T18:13:10.204Z,32.30
2023-04-05T18:15:44.839Z,32.20
2023-04-05T18:18:16.033Z,32.10
2023-04-05T18:20:47.240Z,32.10
2023-04-05T18:23:19.637Z,32.10
2023-04-05T18:25:51.021Z,32.00
2023-04-05T18:28:23.699Z,32.00
2023-04-05T18:30:57.658Z,32.00
2023-04-05T18:33:28.807Z,31.90
2023-04-05T18:36:03.177Z,31.90
2023-04-05T18:38:37.265Z,31.90
2023-04-05T18:41:09.659Z,31.90
2023-04-05T18:43:43.969Z,31.80
2023-04-05T18:46:16.967Z,31.80
2023-04-05T18:48:50.011Z,31.70
2023-04-05T18:51:23.320Z,31.70
2023-04-05T18:54:21.166Z,31.70
2023-04-05T18:56:54.575Z,31.70
2023-04-05T18:59:26.150Z,31.60
2023-04-05T19:01:57.409Z,31.60
2023-04-05T19:04:28.571Z,31.60
2023-04-05T19:06:59.869Z,31.50
2023-04-05T19:09:31.219Z,31.50
2023-04-05T19:12:02.575Z,31.40
2023-04-05T19:14:34.932Z,31.40
2023-04-05T19:17:07.398Z,31.40
2023-04-05T19:19:38.547Z,31.40
2023-04-05T19:22:11.030Z,31.40
2023-04-05T19:24:43.480Z,31.30
2023-04-05T19:27:19.770Z,31.40
2023-04-05T19:29:50.150Z,31.40
2023-04-05T19:32:27.008Z,31.30
2023-04-05T19:35:03.956Z,31.30
2023-04-05T19:37:35.198Z,31.30
2023-04-05T19:40:07.343Z,31.30
2023-04-05T19:42:39.749Z,31.20
2023-04-05T19:45:16.030Z,31.20
2023-04-05T19:47:49.495Z,31.20
2023-04-05T19:50:43.479Z,31.10
2023-04-05T19:53:17.050Z,31.10
2023-04-05T19:55:48.925Z,31.00
2023-04-05T19:58:22.506Z,31.00
2023-04-05T20:00:56.793Z,31.00
2023-04-05T20:03:39.754Z,30.90
2023-04-05T20:06:18.048Z,31.00
2023-04-05T20:08:50.400Z,31.00
2023-04-05T20:11:23.629Z,31.00
2023-04-05T20:13:59.415Z,30.90
2023-04-05T20:16:35.403Z,30.90
2023-04-05T20:19:13.578Z,30.90
2023-04-05T20:21:45.864Z,30.90
2023-04-05T20:24:21.036Z,30.90
2023-04-05T20:26:53.808Z,30.80
2023-04-05T20:29:28.030Z,30.90
2023-04-05T20:31:59.494Z,30.80
2023-04-05T20:34:33.639Z,30.80
2023-04-05T20:37:07.865Z,30.80
2023-04-05T20:39:39.218Z,30.80
2023-04-05T20:42:11.183Z,30.80
2023-04-05T20:44:45.411Z,30.80
2023-04-05T20:47:16.693Z,30.70
2023-04-05T20:49:51.392Z,30.70
2023-04-05T20:52:22.618Z,30.70
2023-04-05T20:54:53.838Z,30.70
2023-04-05T20:57:25.107Z,30.60
2023-04-05T20:59:56.749Z,30.60
2023-04-05T21:02:28.016Z,30.60
2023-04-05T21:04:59.366Z,30.50
2023-04-05T21:07:30.709Z,30.50
2023-04-05T21:10:01.970Z,30.50
2023-04-05T21:12:33.511Z,30.50
2023-04-05T21:15:05.070Z,30.50
2023-04-05T21:17:39.365Z,30.40
2023-04-05T21:20:11.355Z,30.40
2023-04-05T21:22:42.689Z,30.40
2023-04-05T21:25:14.066Z,30.40
2023-04-05T21:27:45.384Z,30.40
2023-04-05T21:30:17.835Z,30.40
2023-04-05T21:32:49.144Z,30.40
2023-04-05T21:35:21.972Z,30.30
2023-04-05T21:37:53.341Z,30.30
2023-04-05T21:40:24.769Z,30.30
2023-04-05T21:42:56.149Z,30.30
2023-04-05T21:45:27.819Z,30.20
2023-04-05T21:48:00.303Z,30.20
2023-04-05T21:50:31.939Z,30.10
2023-04-05T21:53:06.673Z,30.10
2023-04-05T21:55:37.899Z,30.10
2023-04-05T21:58:09.731Z,30.10
2023-04-05T22:00:44.005Z,30.00
2023-04-05T22:03:15.475Z,30.10
2023-04-05T22:05:56.467Z,30.10
2023-04-05T22:08:32.053Z,30.10
2023-04-05T22:11:04.732Z,30.10
2023-04-05T22:13:36.083Z,30.10
2023-04-05T22:16:09.612Z,30.10
2023-04-05T22:18:45.389Z,30.00
2023-04-05T22:21:18.432Z,30.00
2023-04-05T22:23:49.776Z,29.90
2023-04-05T22:26:20.966Z,29.90
2023-04-05T22:28:52.471Z,29.90
2023-04-05T22:31:28.133Z,29.80
2023-04-05T22:33:59.596Z,29.80
2023-04-05T22:36:32.730Z,29.80
2023-04-05T22:39:05.475Z,29.80
2023-04-05T22:41:40.096Z,29.70
2023-04-05T22:44:11.350Z,29.60
2023-04-05T22:46:45.421Z,29.60
2023-04-05T22:49:16.764Z,29.50
2023-04-05T22:51:49.246Z,29.50
2023-04-05T22:54:23.257Z,29.50
2023-04-05T22:56:54.912Z,29.50
2023-04-05T22:59:26.398Z,29.50
2023-04-05T23:02:00.581Z,29.50
2023-04-05T23:04:31.970Z,29.40
2023-04-05T23:07:04.651Z,29.40
2023-04-05T23:09:37.594Z,29.40
2023-04-05T23:12:09.149Z,29.40
2023-04-05T23:14:43.616Z,29.40
2023-04-05T23:17:14.819Z,29.40
2023-04-05T23:19:46.210Z,29.40
2023-04-05T23:22:17.386Z,29.40
2023-04-05T23:24:48.665Z,29.40
2023-04-05T23:27:19.903Z,29.40
2023-04-05T23:29:51.281Z,29.40
2023-04-05T23:32:22.853Z,29.30
2023-04-05T23:34:54.292Z,29.40
2023-04-05T23:37:26.593Z,29.40
2023-04-05T23:39:57.868Z,29.40
2023-04-05T23:42:30.494Z,29.30
2023-04-05T23:45:06.074Z,29.40
2023-04-05T23:47:38.677Z,29.30
2023-04-05T23:50:11.292Z,29.30
2023-04-05T23:52:42.542Z,29.30
2023-04-05T23:55:14.206Z,29.30
2023-04-05T23:57:45.513Z,29.30
